Kezdőlap
METAR-TAF:

METAR-TAF

Repülőterek :

Spencer Municipal Airport

Spencer, Iowa, Amerikai Egyesült Államok

földrajzi szélesség: 43-09-56N, földrajzi hosszúság: 095-12-10W, magasság: 408 m

Jelenlegi meteorológiai megfigyelések

A jelentés 1 órával és 2 perccel ezelõtt készült, 06:53 UTC
Déli szél 16 kt
Hőmérséklet 18°C
Páratartalom 77%
Légköri nyomás 1006 hPa
Látótávolság: 16.1 km
Borult 9500 lábon
enyhe esõ

METAR: KSPW 210653Z AUTO 18016KT 10SM -RA OVC095 18/14 A2972 RMK AO2 PK WND 21026/0601 WSHFT 0554 LTG DSNT NW TSE0555 SLP057 P0005 T01830139

Idő: 02:55 (07:55 UTC)


TAF: hiányzik

Meteorológiai megfigyelések és előrejelzések több, mint 4000 repülőtéren (METAR és TAF jelentéseket).

A térképen piros és sárga pontok jelzik az elérhető meteorológiai állomásokat.

Mozgassa az egeret a pont fölött, hogy megjelenjen az állomás neve.

Azután kattintson az időjárási megfigyelések és előrejelzések megtekintéséhez.

A térkép megváltoztatása: kattintson a fekete keresztel jelölt zöld gombra ráközelítéshez, a vonallal jelölt zöld gombra távolításhoz, vagy a zöld nyilakra a szomszédos térképek eléréséhez.


METAR-TAF: